sensor_id;sensor_type;location;lat;lon;timestamp;temperature;humidity
18169;DHT22;49877;50.398;30.324;2022-12-10T00:01:12;2.20;99.90
18169;DHT22;49877;50.398;30.324;2022-12-10T00:03:40;2.20;99.90
18169;DHT22;49877;50.398;30.324;2022-12-10T00:06:10;2.30;99.90
18169;DHT22;49877;50.398;30.324;2022-12-10T00:08:37;2.30;99.90
18169;DHT22;49877;50.398;30.324;2022-12-10T00:11:08;2.30;99.90
18169;DHT22;49877;50.398;30.324;2022-12-10T00:13:36;2.30;99.90
18169;DHT22;49877;50.398;30.324;2022-12-10T00:16:05;2.30;99.90
18169;DHT22;49877;50.398;30.324;2022-12-10T00:18:33;2.30;99.90
18169;DHT22;49877;50.398;30.324;2022-12-10T00:21:02;2.30;99.90
18169;DHT22;49877;50.398;30.324;2022-12-10T00:23:29;2.20;99.90
18169;DHT22;49877;50.398;30.324;2022-12-10T00:26:02;2.20;99.90
18169;DHT22;49877;50.398;30.324;2022-12-10T00:28:30;2.10;99.90
18169;DHT22;49877;50.398;30.324;2022-12-10T00:31:03;2.10;99.90
18169;DHT22;49877;50.398;30.324;2022-12-10T00:33:30;2.00;99.90
18169;DHT22;49877;50.398;30.324;2022-12-10T00:36:01;2.00;99.90
18169;DHT22;49877;50.398;30.324;2022-12-10T00:38:29;2.00;99.90
18169;DHT22;49877;50.398;30.324;2022-12-10T00:40:55;2.00;99.90
18169;DHT22;49877;50.398;30.324;2022-12-10T00:43:22;2.00;99.90
18169;DHT22;49877;50.398;30.324;2022-12-10T00:45:50;2.10;99.90
18169;DHT22;49877;50.398;30.324;2022-12-10T00:48:17;2.10;99.90
18169;DHT22;49877;50.398;30.324;2022-12-10T00:50:44;2.10;99.90
18169;DHT22;49877;50.398;30.324;2022-12-10T00:53:11;2.10;99.90
18169;DHT22;49877;50.398;30.324;2022-12-10T00:55:37;2.10;99.90
18169;DHT22;49877;50.398;30.324;2022-12-10T00:58:04;2.00;99.90
18169;DHT22;49877;50.398;30.324;2022-12-10T01:00:31;2.00;99.90
18169;DHT22;49877;50.398;30.324;2022-12-10T01:02:59;2.00;99.90
18169;DHT22;49877;50.398;30.324;2022-12-10T01:05:26;2.00;99.90
18169;DHT22;49877;50.398;30.324;2022-12-10T01:07:52;2.00;99.90
18169;DHT22;49877;50.398;30.324;2022-12-10T01:10:19;2.00;99.90
18169;DHT22;49877;50.398;30.324;2022-12-10T01:12:46;2.00;99.90
18169;DHT22;49877;50.398;30.324;2022-12-10T01:15:13;2.00;99.90
18169;DHT22;49877;50.398;30.324;2022-12-10T01:17:40;2.00;99.90
18169;DHT22;49877;50.398;30.324;2022-12-10T01:20:09;2.00;99.90
18169;DHT22;49877;50.398;30.324;2022-12-10T01:22:37;1.90;99.90
18169;DHT22;49877;50.398;30.324;2022-12-10T01:25:05;1.90;99.90
18169;DHT22;49877;50.398;30.324;2022-12-10T01:27:31;1.90;99.90
18169;DHT22;49877;50.398;30.324;2022-12-10T01:29:58;2.00;99.90
18169;DHT22;49877;50.398;30.324;2022-12-10T01:32:25;2.00;99.90
18169;DHT22;49877;50.398;30.324;2022-12-10T01:34:52;2.00;99.90
18169;DHT22;49877;50.398;30.324;2022-12-10T01:37:20;2.00;99.90
18169;DHT22;49877;50.398;30.324;2022-12-10T01:39:47;2.00;99.90
18169;DHT22;49877;50.398;30.324;2022-12-10T01:42:14;2.00;99.90
18169;DHT22;49877;50.398;30.324;2022-12-10T01:45:06;2.00;99.90
18169;DHT22;49877;50.398;30.324;2022-12-10T01:47:35;2.10;99.90
18169;DHT22;49877;50.398;30.324;2022-12-10T01:50:03;2.10;99.90
18169;DHT22;49877;50.398;30.324;2022-12-10T01:52:31;2.10;99.90
18169;DHT22;49877;50.398;30.324;2022-12-10T01:54:58;2.10;99.90
18169;DHT22;49877;50.398;30.324;2022-12-10T01:57:26;2.10;99.90
18169;DHT22;49877;50.398;30.324;2022-12-10T01:59:55;2.00;99.90
18169;DHT22;49877;50.398;30.324;2022-12-10T02:02:31;2.00;99.90
18169;DHT22;49877;50.398;30.324;2022-12-10T02:05:07;2.00;99.90
18169;DHT22;49877;50.398;30.324;2022-12-10T02:07:46;1.90;99.90
18169;DHT22;49877;50.398;30.324;2022-12-10T02:10:23;1.90;99.90
18169;DHT22;49877;50.398;30.324;2022-12-10T02:13:01;1.90;99.90
18169;DHT22;49877;50.398;30.324;2022-12-10T06:19:22;1.00;99.90
18169;DHT22;49877;50.398;30.324;2022-12-10T06:21:49;1.70;99.90
18169;DHT22;49877;50.398;30.324;2022-12-10T06:24:15;1.80;99.90
18169;DHT22;49877;50.398;30.324;2022-12-10T06:26:42;1.80;99.90
18169;DHT22;49877;50.398;30.324;2022-12-10T06:29:09;1.90;99.90
18169;DHT22;49877;50.398;30.324;2022-12-10T06:31:36;1.90;99.90
18169;DHT22;49877;50.398;30.324;2022-12-10T06:34:02;2.00;99.90
18169;DHT22;49877;50.398;30.324;2022-12-10T06:36:31;2.00;99.90
18169;DHT22;49877;50.398;30.324;2022-12-10T06:38:57;2.00;99.90
18169;DHT22;49877;50.398;30.324;2022-12-10T06:41:24;2.00;99.90
18169;DHT22;49877;50.398;30.324;2022-12-10T06:43:51;2.00;99.90
18169;DHT22;49877;50.398;30.324;2022-12-10T06:46:20;2.00;99.90
18169;DHT22;49877;50.398;30.324;2022-12-10T06:48:47;2.10;99.90
18169;DHT22;49877;50.398;30.324;2022-12-10T06:51:14;2.00;99.90
18169;DHT22;49877;50.398;30.324;2022-12-10T06:53:44;2.00;99.90
18169;DHT22;49877;50.398;30.324;2022-12-10T06:56:13;2.10;99.90
18169;DHT22;49877;50.398;30.324;2022-12-10T06:58:40;2.10;99.90
18169;DHT22;49877;50.398;30.324;2022-12-10T07:01:10;2.10;99.90
18169;DHT22;49877;50.398;30.324;2022-12-10T07:03:38;2.10;99.90
18169;DHT22;49877;50.398;30.324;2022-12-10T07:06:06;2.10;99.90
18169;DHT22;49877;50.398;30.324;2022-12-10T07:08:34;2.10;99.90
18169;DHT22;49877;50.398;30.324;2022-12-10T07:11:05;2.10;99.90
18169;DHT22;49877;50.398;30.324;2022-12-10T07:13:32;2.10;99.90
18169;DHT22;49877;50.398;30.324;2022-12-10T07:15:59;2.10;99.90
18169;DHT22;49877;50.398;30.324;2022-12-10T07:18:26;2.20;99.90
18169;DHT22;49877;50.398;30.324;2022-12-10T07:20:53;2.20;99.90
18169;DHT22;49877;50.398;30.324;2022-12-10T07:23:20;2.20;99.90
18169;DHT22;49877;50.398;30.324;2022-12-10T07:25:47;2.20;99.90
18169;DHT22;49877;50.398;30.324;2022-12-10T07:28:16;2.20;99.90
18169;DHT22;49877;50.398;30.324;2022-12-10T07:30:42;2.30;99.90
18169;DHT22;49877;50.398;30.324;2022-12-10T07:33:09;2.30;99.90
18169;DHT22;49877;50.398;30.324;2022-12-10T07:35:38;2.30;99.90
18169;DHT22;49877;50.398;30.324;2022-12-10T07:38:04;2.30;99.90
18169;DHT22;49877;50.398;30.324;2022-12-10T07:40:31;2.30;99.90
18169;DHT22;49877;50.398;30.324;2022-12-10T07:42:58;2.40;99.90
18169;DHT22;49877;50.398;30.324;2022-12-10T07:45:26;2.40;99.90
18169;DHT22;49877;50.398;30.324;2022-12-10T07:47:53;2.40;99.90
18169;DHT22;49877;50.398;30.324;2022-12-10T07:50:19;2.40;99.90
18169;DHT22;49877;50.398;30.324;2022-12-10T07:52:47;2.40;99.90
18169;DHT22;49877;50.398;30.324;2022-12-10T07:55:14;2.50;99.90
18169;DHT22;49877;50.398;30.324;2022-12-10T07:57:40;2.50;99.90
18169;DHT22;49877;50.398;30.324;2022-12-10T08:00:08;2.50;99.90
18169;DHT22;49877;50.398;30.324;2022-12-10T08:02:37;2.50;99.90
18169;DHT22;49877;50.398;30.324;2022-12-10T08:05:04;2.50;99.90
18169;DHT22;49877;50.398;30.324;2022-12-10T08:07:32;2.50;99.90
18169;DHT22;49877;50.398;30.324;2022-12-10T08:09:59;2.60;99.90
18169;DHT22;49877;50.398;30.324;2022-12-10T08:12:26;2.60;99.90
18169;DHT22;49877;50.398;30.324;2022-12-10T08:14:52;2.60;99.90
18169;DHT22;49877;50.398;30.324;2022-12-10T08:17:19;2.60;99.90
18169;DHT22;49877;50.398;30.324;2022-12-10T08:19:47;2.60;99.90
18169;DHT22;49877;50.398;30.324;2022-12-10T08:22:14;2.60;99.90
18169;DHT22;49877;50.398;30.324;2022-12-10T08:24:41;2.70;99.90
18169;DHT22;49877;50.398;30.324;2022-12-10T08:27:08;2.70;99.90
18169;DHT22;49877;50.398;30.324;2022-12-10T08:29:35;2.70;99.90
18169;DHT22;49877;50.398;30.324;2022-12-10T08:32:02;2.70;99.90
18169;DHT22;49877;50.398;30.324;2022-12-10T08:34:29;2.70;99.90
18169;DHT22;49877;50.398;30.324;2022-12-10T08:36:57;2.80;99.90
18169;DHT22;49877;50.398;30.324;2022-12-10T08:39:24;2.80;99.90
18169;DHT22;49877;50.398;30.324;2022-12-10T08:41:50;2.80;99.90
18169;DHT22;49877;50.398;30.324;2022-12-10T08:44:17;2.80;99.90
18169;DHT22;49877;50.398;30.324;2022-12-10T08:46:44;2.80;99.90
18169;DHT22;49877;50.398;30.324;2022-12-10T08:49:11;2.80;99.90
18169;DHT22;49877;50.398;30.324;2022-12-10T08:51:38;2.80;99.90
18169;DHT22;49877;50.398;30.324;2022-12-10T08:54:07;2.90;99.90
18169;DHT22;49877;50.398;30.324;2022-12-10T08:56:34;2.90;99.90
18169;DHT22;49877;50.398;30.324;2022-12-10T08:59:01;2.90;99.90
18169;DHT22;49877;50.398;30.324;2022-12-10T09:01:28;2.90;99.90
18169;DHT22;49877;50.398;30.324;2022-12-10T09:03:54;3.00;99.90
18169;DHT22;49877;50.398;30.324;2022-12-10T09:06:22;3.00;99.90
18169;DHT22;49877;50.398;30.324;2022-12-10T09:08:50;3.00;99.90
18169;DHT22;49877;50.398;30.324;2022-12-10T09:11:20;3.00;99.90
18169;DHT22;49877;50.398;30.324;2022-12-10T09:13:48;3.10;99.90
18169;DHT22;49877;50.398;30.324;2022-12-10T09:16:15;3.00;99.90
18169;DHT22;49877;50.398;30.324;2022-12-10T09:18:42;3.10;99.90
18169;DHT22;49877;50.398;30.324;2022-12-10T09:21:11;3.10;99.90
18169;DHT22;49877;50.398;30.324;2022-12-10T09:23:38;3.10;99.90
18169;DHT22;49877;50.398;30.324;2022-12-10T09:26:06;3.20;99.90
18169;DHT22;49877;50.398;30.324;2022-12-10T09:28:34;3.20;99.90
18169;DHT22;49877;50.398;30.324;2022-12-10T09:31:02;3.20;99.90
18169;DHT22;49877;50.398;30.324;2022-12-10T09:33:30;3.20;99.90
18169;DHT22;49877;50.398;30.324;2022-12-10T09:35:57;3.30;99.90
18169;DHT22;49877;50.398;30.324;2022-12-10T09:38:24;3.30;99.90
18169;DHT22;49877;50.398;30.324;2022-12-10T09:41:00;3.30;99.90
18169;DHT22;49877;50.398;30.324;2022-12-10T09:43:39;3.40;99.90
18169;DHT22;49877;50.398;30.324;2022-12-10T09:46:15;3.40;99.90
18169;DHT22;49877;50.398;30.324;2022-12-10T09:48:54;3.40;99.90
18169;DHT22;49877;50.398;30.324;2022-12-10T09:51:26;3.40;99.90
18169;DHT22;49877;50.398;30.324;2022-12-10T09:53:55;3.40;99.90
18169;DHT22;49877;50.398;30.324;2022-12-10T09:56:28;3.40;99.90
18169;DHT22;49877;50.398;30.324;2022-12-10T09:59:00;3.50;99.90
18169;DHT22;49877;50.398;30.324;2022-12-10T10:01:30;3.50;99.90
18169;DHT22;49877;50.398;30.324;2022-12-10T10:03:57;3.50;99.90
18169;DHT22;49877;50.398;30.324;2022-12-10T10:06:26;3.50;99.90
18169;DHT22;49877;50.398;30.324;2022-12-10T10:08:56;3.50;99.90
18169;DHT22;49877;50.398;30.324;2022-12-10T14:24:28;3.00;99.90
18169;DHT22;49877;50.398;30.324;2022-12-10T14:27:01;3.70;99.90
18169;DHT22;49877;50.398;30.324;2022-12-10T14:29:29;3.70;99.90
18169;DHT22;49877;50.398;30.324;2022-12-10T14:31:56;3.80;99.90
18169;DHT22;49877;50.398;30.324;2022-12-10T14:34:26;3.80;99.90
18169;DHT22;49877;50.398;30.324;2022-12-10T14:36:55;3.90;99.90
18169;DHT22;49877;50.398;30.324;2022-12-10T14:39:27;3.90;99.90
18169;DHT22;49877;50.398;30.324;2022-12-10T14:41:56;3.90;99.90
18169;DHT22;49877;50.398;30.324;2022-12-10T14:44:24;4.00;99.90
18169;DHT22;49877;50.398;30.324;2022-12-10T14:46:51;4.00;99.90
18169;DHT22;49877;50.398;30.324;2022-12-10T14:49:28;4.00;99.90
18169;DHT22;49877;50.398;30.324;2022-12-10T14:51:55;4.00;99.90
18169;DHT22;49877;50.398;30.324;2022-12-10T14:54:28;4.00;99.90
18169;DHT22;49877;50.398;30.324;2022-12-10T14:56:59;4.10;99.90
18169;DHT22;49877;50.398;30.324;2022-12-10T14:59:30;4.10;99.90
18169;DHT22;49877;50.398;30.324;2022-12-10T15:02:02;4.10;99.90
18169;DHT22;49877;50.398;30.324;2022-12-10T15:04:41;4.10;99.90
18169;DHT22;49877;50.398;30.324;2022-12-10T15:07:12;4.10;99.90
18169;DHT22;49877;50.398;30.324;2022-12-10T15:09:42;4.10;99.90
18169;DHT22;49877;50.398;30.324;2022-12-10T15:12:20;4.10;99.90
18169;DHT22;49877;50.398;30.324;2022-12-10T15:14:49;4.10;99.90
18169;DHT22;49877;50.398;30.324;2022-12-10T15:17:33;4.10;99.90
18169;DHT22;49877;50.398;30.324;2022-12-10T15:20:00;4.10;99.90
18169;DHT22;49877;50.398;30.324;2022-12-10T15:22:28;4.10;99.90
18169;DHT22;49877;50.398;30.324;2022-12-10T15:24:57;4.10;99.90
18169;DHT22;49877;50.398;30.324;2022-12-10T15:27:25;4.10;99.90
18169;DHT22;49877;50.398;30.324;2022-12-10T15:29:52;4.10;99.90
18169;DHT22;49877;50.398;30.324;2022-12-10T15:32:21;4.10;99.90
18169;DHT22;49877;50.398;30.324;2022-12-10T15:34:55;4.10;99.90
18169;DHT22;49877;50.398;30.324;2022-12-10T15:37:24;4.10;99.90
18169;DHT22;49877;50.398;30.324;2022-12-10T15:39:54;4.00;99.90
18169;DHT22;49877;50.398;30.324;2022-12-10T15:42:37;4.10;99.90
18169;DHT22;49877;50.398;30.324;2022-12-10T15:45:16;4.10;99.90
18169;DHT22;49877;50.398;30.324;2022-12-10T15:47:46;4.10;99.90
18169;DHT22;49877;50.398;30.324;2022-12-10T15:50:13;4.10;99.90
18169;DHT22;49877;50.398;30.324;2022-12-10T15:52:40;4.10;99.90
18169;DHT22;49877;50.398;30.324;2022-12-10T15:55:08;4.10;99.90
18169;DHT22;49877;50.398;30.324;2022-12-10T15:57:38;4.10;99.90
18169;DHT22;49877;50.398;30.324;2022-12-10T16:00:14;4.10;99.90
18169;DHT22;49877;50.398;30.324;2022-12-10T16:02:45;4.10;99.90
18169;DHT22;49877;50.398;30.324;2022-12-10T16:05:15;4.10;99.90
18169;DHT22;49877;50.398;30.324;2022-12-10T16:07:42;4.10;99.90
18169;DHT22;49877;50.398;30.324;2022-12-10T16:10:10;4.10;99.90
18169;DHT22;49877;50.398;30.324;2022-12-10T16:12:39;4.10;99.90
18169;DHT22;49877;50.398;30.324;2022-12-10T16:15:11;4.10;99.90
18169;DHT22;49877;50.398;30.324;2022-12-10T16:17:41;4.10;99.90
18169;DHT22;49877;50.398;30.324;2022-12-10T16:20:19;4.10;99.90
18169;DHT22;49877;50.398;30.324;2022-12-10T16:22:47;4.20;99.90
18169;DHT22;49877;50.398;30.324;2022-12-10T16:25:14;4.20;99.90
18169;DHT22;49877;50.398;30.324;2022-12-10T16:27:42;4.10;99.90
18169;DHT22;49877;50.398;30.324;2022-12-10T16:30:14;4.10;99.90
18169;DHT22;49877;50.398;30.324;2022-12-10T16:32:41;4.10;99.90
18169;DHT22;49877;50.398;30.324;2022-12-10T16:35:08;4.20;99.90
18169;DHT22;49877;50.398;30.324;2022-12-10T16:37:35;4.10;99.90
18169;DHT22;49877;50.398;30.324;2022-12-10T16:40:03;4.20;99.90
18169;DHT22;49877;50.398;30.324;2022-12-10T16:42:30;4.10;99.90
18169;DHT22;49877;50.398;30.324;2022-12-10T16:44:58;4.10;99.90
18169;DHT22;49877;50.398;30.324;2022-12-10T16:47:25;4.10;99.90
18169;DHT22;49877;50.398;30.324;2022-12-10T16:49:52;4.10;99.90
18169;DHT22;49877;50.398;30.324;2022-12-10T16:52:19;4.10;99.90
18169;DHT22;49877;50.398;30.324;2022-12-10T16:54:45;4.10;99.90
18169;DHT22;49877;50.398;30.324;2022-12-10T16:57:14;4.10;99.90
18169;DHT22;49877;50.398;30.324;2022-12-10T16:59:41;4.20;99.90
18169;DHT22;49877;50.398;30.324;2022-12-10T17:02:15;4.20;99.90
18169;DHT22;49877;50.398;30.324;2022-12-10T17:04:42;4.20;99.90
18169;DHT22;49877;50.398;30.324;2022-12-10T17:07:09;4.20;99.90
18169;DHT22;49877;50.398;30.324;2022-12-10T17:09:37;4.20;99.90
18169;DHT22;49877;50.398;30.324;2022-12-10T17:12:05;4.20;99.90
18169;DHT22;49877;50.398;30.324;2022-12-10T17:14:33;4.30;99.90
18169;DHT22;49877;50.398;30.324;2022-12-10T17:17:02;4.20;99.90
18169;DHT22;49877;50.398;30.324;2022-12-10T17:19:33;4.30;99.90
18169;DHT22;49877;50.398;30.324;2022-12-10T17:22:00;4.30;99.90
18169;DHT22;49877;50.398;30.324;2022-12-10T17:24:27;4.30;99.90
18169;DHT22;49877;50.398;30.324;2022-12-10T17:26:55;4.30;99.90
18169;DHT22;49877;50.398;30.324;2022-12-10T17:29:27;4.30;99.90
18169;DHT22;49877;50.398;30.324;2022-12-10T17:31:55;4.40;99.90
18169;DHT22;49877;50.398;30.324;2022-12-10T17:34:21;4.40;99.90
18169;DHT22;49877;50.398;30.324;2022-12-10T17:36:51;4.40;99.90
18169;DHT22;49877;50.398;30.324;2022-12-10T17:39:19;4.40;99.90
18169;DHT22;49877;50.398;30.324;2022-12-10T17:41:47;4.40;99.90
18169;DHT22;49877;50.398;30.324;2022-12-10T17:44:13;4.40;99.90
18169;DHT22;49877;50.398;30.324;2022-12-10T17:46:40;4.40;99.90
18169;DHT22;49877;50.398;30.324;2022-12-10T17:49:11;4.50;99.90
18169;DHT22;49877;50.398;30.324;2022-12-10T17:51:39;4.50;99.90
18169;DHT22;49877;50.398;30.324;2022-12-10T17:54:07;4.50;99.90
18169;DHT22;49877;50.398;30.324;2022-12-10T17:56:34;4.50;99.90
